createdAt,value
2022-07-29T00:01:53.234Z,101082.91
2022-07-29T00:04:21.459Z,101079.13
2022-07-29T00:06:48.320Z,101070.69
2022-07-29T00:09:14.830Z,101070.94
2022-07-29T00:11:41.395Z,101072.41
2022-07-29T00:14:08.205Z,101067.53
2022-07-29T00:16:35.254Z,101063.50
2022-07-29T00:19:02.395Z,101061.31
2022-07-29T00:21:29.184Z,101054.59
2022-07-29T00:23:55.787Z,101050.72
2022-07-29T00:26:22.404Z,101039.63
2022-07-29T00:28:48.982Z,101044.25
2022-07-29T00:31:16.046Z,101043.44
2022-07-29T00:33:42.676Z,101039.88
2022-07-29T00:36:09.207Z,101032.50
2022-07-29T00:38:35.796Z,101022.03
2022-07-29T00:41:02.466Z,101032.28
2022-07-29T00:43:29.127Z,101024.00
2022-07-29T00:45:55.678Z,101018.84
2022-07-29T00:48:22.289Z,101009.38
2022-07-29T00:50:50.509Z,101011.91
2022-07-29T00:53:17.281Z,101013.78
2022-07-29T00:55:43.872Z,101009.28
2022-07-29T00:58:13.216Z,101001.88
2022-07-29T01:00:41.661Z,101003.97
2022-07-29T01:03:08.841Z,100994.84
2022-07-29T01:05:49.699Z,100994.72
2022-07-29T01:08:18.309Z,100990.22
2022-07-29T01:10:46.601Z,100984.13
2022-07-29T01:13:15.429Z,100986.03
2022-07-29T01:15:48.992Z,100988.38
2022-07-29T01:18:29.581Z,100985.13
2022-07-29T01:21:16.746Z,100979.50
2022-07-29T01:23:59.156Z,100989.63
2022-07-29T01:26:43.804Z,100989.06
2022-07-29T01:29:56.965Z,100992.28
2022-07-29T01:32:29.584Z,100998.84
2022-07-29T01:35:11.213Z,100994.78
2022-07-29T01:37:49.924Z,101002.75
2022-07-29T01:40:36.637Z,100994.47
2022-07-29T01:43:18.512Z,100987.53
2022-07-29T01:45:51.816Z,100990.41
2022-07-29T01:48:24.261Z,100993.50
2022-07-29T01:50:55.313Z,100988.88
2022-07-29T01:53:37.789Z,100987.84
2022-07-29T01:56:07.575Z,100989.91
2022-07-29T01:58:37.766Z,100979.97
2022-07-29T02:01:06.261Z,100977.69
2022-07-29T02:03:34.277Z,100978.69
2022-07-29T02:06:02.639Z,100979.31
2022-07-29T02:08:31.664Z,100982.41
2022-07-29T02:11:00.457Z,100987.50
2022-07-29T02:13:29.872Z,100995.88
2022-07-29T02:16:00.321Z,101000.81
2022-07-29T02:18:29.605Z,101013.06
2022-07-29T02:20:57.820Z,101013.41
2022-07-29T02:23:25.734Z,101016.13
2022-07-29T02:25:55.930Z,101027.22
2022-07-29T02:28:28.532Z,101016.47
2022-07-29T02:31:00.324Z,101008.06
2022-07-29T02:33:28.174Z,101007.25
2022-07-29T02:35:56.482Z,101008.47
2022-07-29T02:38:44.470Z,101008.06
2022-07-29T02:41:18.189Z,101022.22
2022-07-29T02:43:48.301Z,101013.13
2022-07-29T02:46:28.581Z,101003.81
2022-07-29T02:49:14.278Z,101000.00
2022-07-29T02:51:53.852Z,101004.59
2022-07-29T02:54:32.370Z,101013.66
2022-07-29T02:57:05.333Z,101024.13
2022-07-29T02:59:35.308Z,101025.91
2022-07-29T03:02:03.349Z,101027.50
2022-07-29T03:04:33.176Z,101034.53
2022-07-29T03:07:01.490Z,101029.88
2022-07-29T03:09:29.082Z,101034.19
2022-07-29T03:11:56.741Z,101050.63
2022-07-29T03:14:24.264Z,101057.84
2022-07-29T03:16:52.148Z,101062.31
2022-07-29T03:19:21.025Z,101077.88
2022-07-29T03:21:47.804Z,101084.28
2022-07-29T03:24:34.668Z,101078.94
2022-07-29T03:27:02.494Z,101085.59
2022-07-29T03:29:33.734Z,101088.44
2022-07-29T03:32:03.303Z,101088.53
2022-07-29T03:34:30.849Z,101096.66
2022-07-29T03:36:57.466Z,101096.66
2022-07-29T03:39:28.288Z,101097.47
2022-07-29T03:41:58.136Z,101094.88
2022-07-29T03:44:27.066Z,101086.66
2022-07-29T03:46:56.749Z,101083.28
2022-07-29T03:49:25.823Z,101074.72
2022-07-29T03:51:52.420Z,101056.31
2022-07-29T03:54:19.724Z,101044.53
2022-07-29T03:56:49.464Z,101038.41
2022-07-29T03:59:18.696Z,101031.84
2022-07-29T04:01:46.974Z,101031.34
2022-07-29T04:04:14.173Z,101031.44
2022-07-29T04:06:48.324Z,101034.56
2022-07-29T04:09:15.228Z,101038.56
2022-07-29T04:12:03.092Z,101046.53
2022-07-29T04:14:29.643Z,101051.63
2022-07-29T04:16:56.239Z,101046.34
2022-07-29T04:19:23.447Z,101044.09
2022-07-29T04:21:50.391Z,101038.88
2022-07-29T04:24:17.535Z,101029.59
2022-07-29T04:26:44.538Z,101034.19
2022-07-29T04:29:12.830Z,101039.03
2022-07-29T04:31:39.394Z,101042.94
2022-07-29T04:34:06.231Z,101044.56
2022-07-29T04:36:33.098Z,101053.16
2022-07-29T04:38:59.697Z,101049.94
2022-07-29T04:41:32.672Z,101037.75
2022-07-29T04:44:01.883Z,101035.28
2022-07-29T04:46:28.776Z,101037.53
2022-07-29T04:48:55.544Z,101039.28
2022-07-29T04:51:22.126Z,101025.34
2022-07-29T04:53:48.840Z,101019.81
2022-07-29T04:56:15.397Z,101020.69
2022-07-29T04:58:41.925Z,101015.78
2022-07-29T05:01:08.554Z,101023.69
2022-07-29T05:03:35.155Z,101023.22
2022-07-29T05:06:01.948Z,101019.59
2022-07-29T05:08:28.484Z,101027.16
2022-07-29T05:10:55.120Z,101026.22
2022-07-29T05:13:21.672Z,101036.97
2022-07-29T05:15:48.292Z,101038.97
2022-07-29T05:18:15.108Z,101036.09
2022-07-29T05:20:41.871Z,101042.16
2022-07-29T05:23:08.714Z,101038.00
2022-07-29T05:25:43.631Z,101049.63
2022-07-29T05:28:12.202Z,101049.59
2022-07-29T05:30:39.244Z,101053.00
2022-07-29T05:33:05.831Z,101051.00
2022-07-29T05:35:32.520Z,101049.03
2022-07-29T05:37:59.052Z,101054.47
2022-07-29T05:40:25.592Z,101051.50
2022-07-29T05:42:52.171Z,101046.34
2022-07-29T05:45:18.735Z,101038.97
2022-07-29T05:47:45.353Z,101038.59
2022-07-29T05:50:11.985Z,101055.22
2022-07-29T05:52:38.536Z,101053.00
2022-07-29T05:55:06.707Z,101057.28
2022-07-29T05:57:33.287Z,101062.56
2022-07-29T06:00:00.119Z,101062.53
2022-07-29T06:02:26.786Z,101072.66
2022-07-29T06:04:53.753Z,101072.25
2022-07-29T06:07:20.721Z,101072.88
2022-07-29T06:09:47.346Z,101079.16
2022-07-29T06:12:14.026Z,101087.91
2022-07-29T06:14:41.077Z,101091.38
2022-07-29T06:17:07.729Z,101087.09
2022-07-29T06:19:37.395Z,101095.00
2022-07-29T06:22:04.748Z,101095.75
2022-07-29T06:24:31.690Z,101111.03
2022-07-29T06:26:58.314Z,101113.91
2022-07-29T06:29:25.029Z,101118.22
2022-07-29T06:31:51.641Z,101123.88
2022-07-29T06:34:18.453Z,101122.84
2022-07-29T06:36:46.062Z,101132.09
2022-07-29T06:39:12.782Z,101130.88
2022-07-29T06:41:39.428Z,101143.28
2022-07-29T06:44:13.002Z,101132.13
2022-07-29T06:46:39.788Z,101138.59
2022-07-29T06:49:06.504Z,101128.41
2022-07-29T06:51:33.229Z,101123.97
2022-07-29T06:54:03.318Z,101123.53
2022-07-29T06:56:39.663Z,101119.06
2022-07-29T06:59:08.707Z,101120.84
2022-07-29T07:01:37.970Z,101118.56
2022-07-29T07:04:04.852Z,101118.56
2022-07-29T07:06:31.439Z,101128.75
2022-07-29T07:08:57.982Z,101133.81
2022-07-29T07:11:24.590Z,101130.97
2022-07-29T07:13:51.197Z,101139.50
2022-07-29T07:16:17.970Z,101142.97
2022-07-29T07:18:46.088Z,101131.22
2022-07-29T07:21:13.025Z,101135.16
2022-07-29T07:23:46.381Z,101135.34
2022-07-29T07:26:12.965Z,101133.13
2022-07-29T07:28:39.484Z,101129.19
2022-07-29T07:31:06.245Z,101130.41
2022-07-29T07:33:32.967Z,101127.72
2022-07-29T07:35:59.572Z,101130.38
2022-07-29T07:38:26.105Z,101130.16
2022-07-29T07:40:52.740Z,101119.78
2022-07-29T07:43:19.254Z,101118.34
2022-07-29T07:45:45.835Z,101114.06
2022-07-29T07:48:12.404Z,101114.50
2022-07-29T07:50:39.047Z,101117.09
2022-07-29T07:53:05.859Z,101101.88
2022-07-29T07:55:53.218Z,101103.91
2022-07-29T07:58:18.949Z,101104.41
2022-07-29T08:00:45.577Z,101109.44
2022-07-29T08:03:16.773Z,101115.72
2022-07-29T08:05:44.079Z,101123.03
2022-07-29T08:08:10.765Z,101110.19
2022-07-29T08:11:00.100Z,101109.22
2022-07-29T08:13:29.763Z,101105.97
2022-07-29T08:16:01.226Z,101099.16
2022-07-29T08:18:32.231Z,101104.72
2022-07-29T08:20:59.417Z,101115.28
2022-07-29T08:23:32.976Z,101132.75
2022-07-29T08:26:14.334Z,101131.13
2022-07-29T08:28:45.682Z,101129.53
2022-07-29T08:31:13.762Z,101131.59
2022-07-29T08:33:40.283Z,101122.63
2022-07-29T08:36:07.508Z,101120.84
2022-07-29T08:38:34.596Z,101110.94
2022-07-29T08:41:01.934Z,101112.47
2022-07-29T08:43:31.747Z,101104.09
2022-07-29T08:45:58.411Z,101112.41
2022-07-29T08:48:25.654Z,101114.88
2022-07-29T08:50:56.715Z,101117.47
2022-07-29T08:53:27.287Z,101122.94
2022-07-29T08:55:54.526Z,101121.13
2022-07-29T08:58:23.225Z,101114.63
2022-07-29T09:00:56.471Z,101120.31
2022-07-29T09:03:28.306Z,101116.78
2022-07-29T09:05:55.293Z,101111.84
2022-07-29T09:08:22.275Z,101130.66
2022-07-29T09:10:49.034Z,101117.56
2022-07-29T09:13:15.629Z,101123.06
2022-07-29T09:15:42.413Z,101126.69
2022-07-29T09:18:20.301Z,101127.59
2022-07-29T09:21:13.956Z,101137.31
2022-07-29T09:23:42.605Z,101131.22
2022-07-29T09:26:09.154Z,101124.22
2022-07-29T09:28:42.908Z,101128.78
2022-07-29T09:31:09.547Z,101130.72
2022-07-29T09:33:36.674Z,101123.59
2022-07-29T09:36:08.652Z,101130.47
2022-07-29T09:38:37.909Z,101138.97
2022-07-29T09:41:06.951Z,101139.84
2022-07-29T09:43:34.524Z,101134.66
2022-07-29T09:46:13.947Z,101135.03
2022-07-29T09:48:40.816Z,101129.72
2022-07-29T09:51:20.780Z,101135.53
2022-07-29T09:53:48.767Z,101134.69
2022-07-29T09:56:15.360Z,101131.59
2022-07-29T09:58:41.906Z,101136.03
2022-07-29T10:01:08.563Z,101138.25
2022-07-29T10:03:52.793Z,101142.34
2022-07-29T10:06:19.480Z,101140.75
2022-07-29T10:08:46.451Z,101148.03
2022-07-29T10:11:15.711Z,101146.72
2022-07-29T10:13:45.600Z,101144.34
2022-07-29T10:16:13.969Z,101142.53
2022-07-29T10:18:42.508Z,101152.88
2022-07-29T10:21:10.448Z,101154.00
2022-07-29T10:23:46.315Z,101150.47
2022-07-29T10:26:14.126Z,101141.31
2022-07-29T10:28:40.682Z,101149.06
2022-07-29T10:31:13.215Z,101149.56
2022-07-29T10:33:57.244Z,101148.75
2022-07-29T10:36:52.854Z,101147.00
2022-07-29T10:39:34.366Z,101164.41
2022-07-29T10:42:29.657Z,101153.09
2022-07-29T10:45:02.701Z,101154.88
2022-07-29T10:47:31.824Z,101155.59
2022-07-29T10:50:07.099Z,101153.66
2022-07-29T10:52:55.004Z,101144.50
2022-07-29T10:55:49.528Z,101143.59
2022-07-29T10:58:18.007Z,101148.09
2022-07-29T11:00:46.035Z,101141.25
2022-07-29T11:03:49.198Z,101156.63
2022-07-29T11:06:18.096Z,101143.47
2022-07-29T11:09:34.929Z,101145.94
2022-07-29T11:12:03.032Z,101146.16
2022-07-29T11:14:59.912Z,101149.75
2022-07-29T11:17:26.960Z,101147.34
2022-07-29T11:20:31.577Z,101149.34
2022-07-29T11:22:59.578Z,101142.69
2022-07-29T11:25:42.927Z,101146.81
2022-07-29T11:28:23.001Z,101147.06
2022-07-29T11:30:53.560Z,101142.81
2022-07-29T11:33:54.153Z,101143.97
2022-07-29T11:36:20.064Z,101143.97
2022-07-29T11:39:36.891Z,101135.06
2022-07-29T11:42:32.147Z,101140.50
2022-07-29T11:48:27.925Z,101143.28
2022-07-29T11:50:49.098Z,101148.47
2022-07-29T11:53:17.064Z,101144.44
2022-07-29T11:58:31.441Z,101150.78
2022-07-29T12:00:58.984Z,101147.91
2022-07-29T12:03:33.286Z,101147.88
2022-07-29T12:06:04.743Z,101142.84
2022-07-29T12:07:03.858Z,101147.78
2022-07-29T12:08:42.480Z,101143.59
2022-07-29T12:11:17.600Z,101144.44
2022-07-29T12:13:47.311Z,101148.94
2022-07-29T12:16:16.424Z,101144.25
2022-07-29T12:18:57.370Z,101142.97
2022-07-29T12:21:25.708Z,101140.81
2022-07-29T12:23:59.416Z,101148.88
2022-07-29T12:26:31.554Z,101145.78
2022-07-29T12:29:02.503Z,101150.75
2022-07-29T12:31:43.897Z,101150.75
2022-07-29T12:34:13.202Z,101151.78
2022-07-29T12:36:40.370Z,101146.38
2022-07-29T12:39:07.085Z,101147.16
2022-07-29T12:41:33.649Z,101142.03
2022-07-29T12:44:00.192Z,101149.50
2022-07-29T12:46:27.143Z,101150.88
2022-07-29T12:48:56.027Z,101141.16
2022-07-29T12:51:42.000Z,101140.59
2022-07-29T12:54:11.629Z,101133.41
2022-07-29T12:56:43.968Z,101129.75
2022-07-29T12:59:20.493Z,101140.84
2022-07-29T13:01:50.154Z,101138.81
2022-07-29T13:04:33.668Z,101131.84
2022-07-29T13:08:29.490Z,101132.22
2022-07-29T13:09:55.267Z,101134.84
2022-07-29T13:12:21.861Z,101124.31
2022-07-29T13:14:50.896Z,101131.28
2022-07-29T13:17:19.987Z,101135.50
2022-07-29T13:19:52.133Z,101134.81
2022-07-29T13:22:24.992Z,101134.69
2022-07-29T13:24:53.220Z,101136.22
2022-07-29T13:27:22.646Z,101127.25
2022-07-29T13:29:52.138Z,101142.97
2022-07-29T13:32:19.549Z,101134.19
2022-07-29T13:34:56.350Z,101129.19
2022-07-29T13:37:22.937Z,101133.97
2022-07-29T13:39:53.008Z,101120.69
2022-07-29T13:42:20.443Z,101134.19
2022-07-29T13:44:47.101Z,101128.38
2022-07-29T13:47:13.831Z,101122.69
2022-07-29T13:49:40.641Z,101124.72
2022-07-29T13:52:08.401Z,101112.13
2022-07-29T13:54:42.084Z,101115.50
2022-07-29T13:57:09.738Z,101125.72
2022-07-29T13:59:36.315Z,101118.63
2022-07-29T14:02:03.779Z,101121.97
2022-07-29T14:04:30.372Z,101120.13
2022-07-29T14:06:56.993Z,101119.31
2022-07-29T14:09:23.844Z,101113.63
2022-07-29T14:11:52.199Z,101113.50
2022-07-29T14:14:18.788Z,101117.72
2022-07-29T14:16:49.206Z,101107.66
2022-07-29T14:19:18.656Z,101109.00
2022-07-29T14:21:45.676Z,101116.13
2022-07-29T14:24:17.056Z,101120.38
2022-07-29T14:26:48.584Z,101121.44
2022-07-29T14:29:15.228Z,101117.91
2022-07-29T14:31:41.864Z,101117.00
2022-07-29T14:34:08.476Z,101111.78
2022-07-29T14:36:35.780Z,101113.47
2022-07-29T14:39:02.332Z,101118.59
2022-07-29T14:41:29.173Z,101115.25
2022-07-29T14:43:55.815Z,101123.25
2022-07-29T14:46:22.497Z,101104.84
2022-07-29T14:48:49.176Z,101109.34
2022-07-29T14:51:15.944Z,101115.22
2022-07-29T14:53:42.569Z,101118.91
2022-07-29T14:56:34.288Z,101115.03
2022-07-29T14:58:58.240Z,101125.22
2022-07-29T15:01:25.633Z,101125.00
2022-07-29T15:03:55.745Z,101124.81
2022-07-29T15:06:26.107Z,101125.22
2022-07-29T15:08:52.696Z,101124.63
2022-07-29T15:11:19.246Z,101116.69
2022-07-29T15:13:45.807Z,101115.53
2022-07-29T15:16:12.368Z,101124.16
2022-07-29T15:18:39.394Z,101125.59
2022-07-29T15:21:07.798Z,101120.34
2022-07-29T15:23:37.185Z,101118.59
2022-07-29T15:26:04.619Z,101137.75
2022-07-29T15:28:31.278Z,101123.34
2022-07-29T15:30:57.825Z,101123.03
2022-07-29T15:33:24.462Z,101122.69
2022-07-29T15:35:51.033Z,101127.03
2022-07-29T15:38:18.245Z,101123.13
2022-07-29T15:40:46.485Z,101117.22
2022-07-29T15:43:13.119Z,101132.66
2022-07-29T15:45:42.050Z,101125.72
2022-07-29T15:48:09.924Z,101124.72
2022-07-29T15:50:41.473Z,101124.44
2022-07-29T15:53:08.073Z,101126.28
2022-07-29T15:55:34.628Z,101133.28
2022-07-29T15:58:01.136Z,101123.09
2022-07-29T16:00:27.884Z,101127.75
2022-07-29T16:02:54.439Z,101127.34
2022-07-29T16:05:21.061Z,101120.31
2022-07-29T16:07:47.687Z,101118.28
2022-07-29T16:10:14.216Z,101123.06
2022-07-29T16:12:40.791Z,101115.38
2022-07-29T16:15:10.522Z,101109.56
2022-07-29T16:17:39.012Z,101110.41
2022-07-29T16:20:06.459Z,101110.41
2022-07-29T16:22:33.038Z,101104.97
2022-07-29T16:24:59.645Z,101099.97
2022-07-29T16:27:35.583Z,101110.63
2022-07-29T16:30:08.181Z,101107.31
2022-07-29T16:32:34.729Z,101108.13
2022-07-29T16:35:02.712Z,101101.25
2022-07-29T16:37:33.495Z,101110.88
2022-07-29T16:40:00.238Z,101105.63
2022-07-29T16:42:45.555Z,101106.94
2022-07-29T16:45:12.994Z,101104.31
2022-07-29T16:47:39.581Z,101100.38
2022-07-29T16:50:06.705Z,101100.41
2022-07-29T16:52:33.710Z,101108.03
2022-07-29T16:55:00.253Z,101107.97
2022-07-29T16:57:26.808Z,101115.41
2022-07-29T16:59:53.336Z,101112.69
2022-07-29T17:02:19.994Z,101106.88
2022-07-29T17:04:46.565Z,101109.94
2022-07-29T17:07:13.164Z,101109.13
2022-07-29T17:09:39.828Z,101111.94
2022-07-29T17:12:06.637Z,101108.41
2022-07-29T17:14:33.170Z,101114.38
2022-07-29T17:17:02.285Z,101120.22
2022-07-29T17:19:35.684Z,101107.19
2022-07-29T17:22:11.319Z,101112.38
2022-07-29T17:24:40.304Z,101111.72
2022-07-29T17:27:08.333Z,101121.91
2022-07-29T17:29:35.194Z,101111.66
2022-07-29T17:32:02.009Z,101112.38
2022-07-29T17:34:28.561Z,101110.06
2022-07-29T17:36:55.229Z,101115.88
2022-07-29T17:39:21.909Z,101123.78
2022-07-29T17:41:48.655Z,101129.03
2022-07-29T17:44:15.198Z,101135.97
2022-07-29T17:46:41.809Z,101133.63
2022-07-29T17:49:08.488Z,101142.44
2022-07-29T17:51:35.075Z,101138.78
2022-07-29T17:54:02.612Z,101139.84
2022-07-29T17:56:29.170Z,101140.19
2022-07-29T17:58:56.201Z,101145.16
2022-07-29T18:01:23.520Z,101140.31
2022-07-29T18:03:50.136Z,101131.28
2022-07-29T18:06:16.712Z,101140.97
2022-07-29T18:08:47.357Z,101140.81
2022-07-29T18:11:14.873Z,101149.84
2022-07-29T18:13:42.156Z,101146.38
2022-07-29T18:16:09.346Z,101154.81
2022-07-29T18:18:35.978Z,101152.97
2022-07-29T18:21:02.603Z,101164.66
2022-07-29T18:23:29.136Z,101164.56
2022-07-29T18:25:55.807Z,101160.75
2022-07-29T18:28:22.480Z,101170.25
2022-07-29T18:30:49.305Z,101171.97
2022-07-29T18:33:21.722Z,101166.78
2022-07-29T18:35:51.791Z,101167.72
2022-07-29T18:38:18.964Z,101169.97
2022-07-29T18:40:46.271Z,101162.56
2022-07-29T18:43:13.657Z,101174.47
2022-07-29T18:45:40.669Z,101169.50
2022-07-29T18:48:12.924Z,101174.47
2022-07-29T18:50:40.407Z,101167.63
2022-07-29T18:53:07.061Z,101171.66
2022-07-29T18:55:33.738Z,101169.44
2022-07-29T18:58:00.325Z,101164.69
2022-07-29T19:00:27.650Z,101169.88
2022-07-29T19:02:54.373Z,101171.56
2022-07-29T19:05:21.205Z,101169.44
2022-07-29T19:07:47.789Z,101169.59
2022-07-29T19:10:14.425Z,101170.78
2022-07-29T19:12:40.996Z,101165.56
2022-07-29T19:15:10.235Z,101173.63
2022-07-29T19:17:36.793Z,101178.03
2022-07-29T19:20:03.845Z,101170.31
2022-07-29T19:22:31.040Z,101172.41
2022-07-29T19:24:57.721Z,101176.00
2022-07-29T19:27:24.347Z,101178.13
2022-07-29T19:29:50.899Z,101174.63
2022-07-29T19:32:24.645Z,101171.63
2022-07-29T19:35:11.335Z,101171.19
2022-07-29T19:37:37.976Z,101183.13
2022-07-29T19:40:05.846Z,101187.28
2022-07-29T19:42:32.450Z,101186.34
2022-07-29T19:44:59.027Z,101190.06
2022-07-29T19:47:26.072Z,101192.03
2022-07-29T19:49:52.610Z,101200.00
2022-07-29T19:52:19.149Z,101204.66
2022-07-29T19:54:45.682Z,101204.91
2022-07-29T19:57:12.238Z,101199.22
2022-07-29T19:59:38.792Z,101202.34
2022-07-29T20:02:05.733Z,101203.88
2022-07-29T20:04:32.350Z,101209.63
2022-07-29T20:07:01.721Z,101214.84
2022-07-29T20:09:28.806Z,101215.31
2022-07-29T20:11:55.372Z,101218.41
2022-07-29T20:14:22.216Z,101213.81
2022-07-29T20:16:49.209Z,101216.34
2022-07-29T20:19:15.967Z,101219.25
2022-07-29T20:21:42.502Z,101215.41
2022-07-29T20:24:10.300Z,101220.16
2022-07-29T20:26:36.941Z,101224.31
2022-07-29T20:29:05.203Z,101232.72
2022-07-29T20:31:32.777Z,101230.75
2022-07-29T20:34:00.575Z,101233.84
2022-07-29T20:36:28.037Z,101234.53
2022-07-29T20:38:55.572Z,101225.19
2022-07-29T20:41:22.371Z,101229.94
2022-07-29T20:43:49.817Z,101238.34
2022-07-29T20:46:16.513Z,101236.13
2022-07-29T20:48:43.409Z,101238.44
2022-07-29T20:51:10.220Z,101243.19
2022-07-29T20:53:40.718Z,101238.31
2022-07-29T20:56:07.967Z,101234.28
2022-07-29T20:58:36.134Z,101238.16
2022-07-29T21:01:03.182Z,101237.59
2022-07-29T21:03:29.849Z,101241.28
2022-07-29T21:05:56.509Z,101241.72
2022-07-29T21:08:23.060Z,101250.75
2022-07-29T21:10:49.868Z,101260.78
2022-07-29T21:13:17.017Z,101252.44
2022-07-29T21:15:46.262Z,101261.69
2022-07-29T21:18:30.738Z,101261.09
2022-07-29T21:21:04.141Z,101257.84
2022-07-29T21:23:30.663Z,101256.25
2022-07-29T21:25:57.844Z,101264.44
2022-07-29T21:28:27.253Z,101269.16
2022-07-29T21:30:54.946Z,101265.69
2022-07-29T21:33:21.843Z,101269.59
2022-07-29T21:38:35.461Z,101271.06
2022-07-29T21:41:02.300Z,101273.72
2022-07-29T21:43:29.098Z,101273.16
2022-07-29T21:45:56.983Z,101276.25
2022-07-29T21:48:25.279Z,101273.81
2022-07-29T21:50:53.100Z,101277.28
2022-07-29T21:53:21.989Z,101283.88
2022-07-29T21:55:50.614Z,101278.75
2022-07-29T21:58:18.262Z,101279.78
2022-07-29T22:00:45.312Z,101275.53
2022-07-29T22:03:12.445Z,101279.19
2022-07-29T22:05:39.024Z,101275.91
2022-07-29T22:08:07.114Z,101272.69
2022-07-29T22:10:33.919Z,101279.84
2022-07-29T22:13:02.000Z,101275.00
2022-07-29T22:15:29.445Z,101268.84
2022-07-29T22:17:56.217Z,101278.66
2022-07-29T22:20:23.527Z,101266.41
2022-07-29T22:22:50.061Z,101274.84
2022-07-29T22:25:17.678Z,101274.22
2022-07-29T22:27:44.293Z,101278.72
2022-07-29T22:30:11.310Z,101276.31
2022-07-29T22:32:38.019Z,101272.63
2022-07-29T22:35:05.082Z,101272.03
2022-07-29T22:37:31.736Z,101274.09
2022-07-29T22:39:58.271Z,101274.53
2022-07-29T22:42:25.511Z,101280.66
2022-07-29T22:44:52.094Z,101270.69
2022-07-29T22:47:18.697Z,101271.50
2022-07-29T22:50:06.292Z,101265.25
2022-07-29T22:52:32.831Z,101259.13
2022-07-29T22:54:59.357Z,101264.44
2022-07-29T22:57:25.917Z,101261.41
2022-07-29T22:59:52.470Z,101261.84
2022-07-29T23:02:19.046Z,101259.66
2022-07-29T23:04:45.585Z,101245.59
2022-07-29T23:07:12.116Z,101249.94
2022-07-29T23:09:38.611Z,101249.31
2022-07-29T23:12:05.319Z,101247.91
2022-07-29T23:14:31.857Z,101242.47
2022-07-29T23:16:58.828Z,101250.66
2022-07-29T23:19:25.642Z,101250.06
2022-07-29T23:21:52.172Z,101240.69
2022-07-29T23:24:18.761Z,101237.69
2022-07-29T23:26:45.384Z,101233.38
2022-07-29T23:29:12.013Z,101237.53
2022-07-29T23:31:41.860Z,101238.75
2022-07-29T23:34:14.820Z,101233.09
2022-07-29T23:36:42.235Z,101237.75
2022-07-29T23:39:11.239Z,101238.78
2022-07-29T23:41:37.863Z,101235.97
2022-07-29T23:44:04.764Z,101232.97
2022-07-29T23:46:31.416Z,101232.97
2022-07-29T23:48:58.011Z,101233.38
2022-07-29T23:51:25.109Z,101232.19
2022-07-29T23:53:54.042Z,101225.72
2022-07-29T23:56:21.098Z,101226.53
2022-07-29T23:58:47.721Z,101228.78
